sensor_id;sensor_type;location;lat;lon;timestamp;P1;durP1;ratioP1;P2;durP2;ratioP2
73219;SDS011;61434;43.538;-5.688;2022-09-03T00:01:43;8.98;;;2.35;;
73219;SDS011;61434;43.538;-5.688;2022-09-03T00:04:23;12.65;;;2.33;;
73219;SDS011;61434;43.538;-5.688;2022-09-03T00:07:05;10.57;;;2.17;;
73219;SDS011;61434;43.538;-5.688;2022-09-03T00:09:38;9.98;;;2.38;;
73219;SDS011;61434;43.538;-5.688;2022-09-03T00:12:25;10.23;;;2.50;;
73219;SDS011;61434;43.538;-5.688;2022-09-03T00:15:02;7.97;;;2.40;;
73219;SDS011;61434;43.538;-5.688;2022-09-03T00:17:38;8.48;;;2.35;;
73219;SDS011;61434;43.538;-5.688;2022-09-03T00:20:12;9.10;;;2.40;;
73219;SDS011;61434;43.538;-5.688;2022-09-03T00:22:47;10.20;;;2.97;;
73219;SDS011;61434;43.538;-5.688;2022-09-03T00:25:18;8.13;;;2.40;;
73219;SDS011;61434;43.538;-5.688;2022-09-03T00:27:50;9.77;;;2.70;;
73219;SDS011;61434;43.538;-5.688;2022-09-03T00:30:19;8.18;;;2.83;;
73219;SDS011;61434;43.538;-5.688;2022-09-03T00:33:01;8.25;;;2.20;;
73219;SDS011;61434;43.538;-5.688;2022-09-03T00:38:18;7.90;;;2.13;;
73219;SDS011;61434;43.538;-5.688;2022-09-03T00:40:53;7.57;;;2.05;;
73219;SDS011;61434;43.538;-5.688;2022-09-03T00:46:12;6.80;;;2.28;;
73219;SDS011;61434;43.538;-5.688;2022-09-03T01:00:22;10.10;;;2.85;;
73219;SDS011;61434;43.538;-5.688;2022-09-03T01:13:55;8.83;;;2.30;;
73219;SDS011;61434;43.538;-5.688;2022-09-03T01:16:37;9.95;;;2.70;;
73219;SDS011;61434;43.538;-5.688;2022-09-03T01:22:22;8.45;;;2.80;;
73219;SDS011;61434;43.538;-5.688;2022-09-03T01:24:57;8.20;;;2.80;;
73219;SDS011;61434;43.538;-5.688;2022-09-03T01:36:46;9.00;;;2.40;;
73219;SDS011;61434;43.538;-5.688;2022-09-03T01:42:35;10.97;;;2.30;;
73219;SDS011;61434;43.538;-5.688;2022-09-03T01:48:17;7.40;;;2.15;;
73219;SDS011;61434;43.538;-5.688;2022-09-03T01:51:06;10.82;;;2.53;;
73219;SDS011;61434;43.538;-5.688;2022-09-03T02:07:46;10.95;;;2.60;;
73219;SDS011;61434;43.538;-5.688;2022-09-03T02:10:19;8.87;;;2.17;;
73219;SDS011;61434;43.538;-5.688;2022-09-03T02:12:55;9.43;;;2.50;;
73219;SDS011;61434;43.538;-5.688;2022-09-03T02:15:25;7.95;;;2.30;;
73219;SDS011;61434;43.538;-5.688;2022-09-03T02:17:54;9.32;;;2.42;;
73219;SDS011;61434;43.538;-5.688;2022-09-03T02:20:26;11.65;;;2.20;;
73219;SDS011;61434;43.538;-5.688;2022-09-03T02:22:53;8.10;;;2.53;;
73219;SDS011;61434;43.538;-5.688;2022-09-03T02:25:22;7.30;;;2.65;;
73219;SDS011;61434;43.538;-5.688;2022-09-03T02:27:53;11.75;;;2.80;;
73219;SDS011;61434;43.538;-5.688;2022-09-03T02:30:19;8.90;;;2.47;;
73219;SDS011;61434;43.538;-5.688;2022-09-03T02:32:44;11.90;;;3.17;;
73219;SDS011;61434;43.538;-5.688;2022-09-03T02:35:10;12.40;;;2.60;;
73219;SDS011;61434;43.538;-5.688;2022-09-03T02:37:36;9.90;;;2.90;;
73219;SDS011;61434;43.538;-5.688;2022-09-03T02:40:02;11.98;;;2.97;;
73219;SDS011;61434;43.538;-5.688;2022-09-03T02:42:32;10.47;;;2.87;;
73219;SDS011;61434;43.538;-5.688;2022-09-03T02:45:32;6.10;;;2.40;;
73219;SDS011;61434;43.538;-5.688;2022-09-03T02:47:58;8.65;;;2.80;;
73219;SDS011;61434;43.538;-5.688;2022-09-03T02:50:24;9.13;;;2.35;;
73219;SDS011;61434;43.538;-5.688;2022-09-03T02:52:50;9.15;;;2.50;;
73219;SDS011;61434;43.538;-5.688;2022-09-03T02:55:17;9.37;;;2.40;;
73219;SDS011;61434;43.538;-5.688;2022-09-03T02:57:43;10.50;;;2.58;;
73219;SDS011;61434;43.538;-5.688;2022-09-03T03:00:09;12.43;;;2.28;;
73219;SDS011;61434;43.538;-5.688;2022-09-03T03:02:35;7.47;;;2.97;;
73219;SDS011;61434;43.538;-5.688;2022-09-03T03:05:00;8.68;;;2.72;;
73219;SDS011;61434;43.538;-5.688;2022-09-03T03:07:27;7.70;;;2.60;;
73219;SDS011;61434;43.538;-5.688;2022-09-03T03:09:56;13.00;;;2.50;;
73219;SDS011;61434;43.538;-5.688;2022-09-03T03:12:21;6.67;;;2.30;;
73219;SDS011;61434;43.538;-5.688;2022-09-03T03:14:47;9.80;;;3.00;;
73219;SDS011;61434;43.538;-5.688;2022-09-03T03:17:12;8.85;;;3.03;;
73219;SDS011;61434;43.538;-5.688;2022-09-03T03:19:38;7.88;;;2.50;;
73219;SDS011;61434;43.538;-5.688;2022-09-03T03:22:03;8.40;;;2.60;;
73219;SDS011;61434;43.538;-5.688;2022-09-03T03:24:28;9.90;;;2.80;;
73219;SDS011;61434;43.538;-5.688;2022-09-03T03:26:55;7.95;;;2.10;;
73219;SDS011;61434;43.538;-5.688;2022-09-03T03:29:22;7.70;;;2.17;;
73219;SDS011;61434;43.538;-5.688;2022-09-03T03:31:49;11.68;;;2.50;;
73219;SDS011;61434;43.538;-5.688;2022-09-03T03:34:15;7.20;;;2.30;;
73219;SDS011;61434;43.538;-5.688;2022-09-03T03:36:41;8.83;;;2.30;;
73219;SDS011;61434;43.538;-5.688;2022-09-03T03:39:06;8.63;;;2.60;;
73219;SDS011;61434;43.538;-5.688;2022-09-03T03:41:32;11.10;;;2.55;;
73219;SDS011;61434;43.538;-5.688;2022-09-03T03:44:00;7.03;;;2.42;;
73219;SDS011;61434;43.538;-5.688;2022-09-03T03:46:30;7.82;;;2.38;;
73219;SDS011;61434;43.538;-5.688;2022-09-03T03:49:00;7.50;;;2.70;;
73219;SDS011;61434;43.538;-5.688;2022-09-03T03:51:26;8.98;;;2.58;;
73219;SDS011;61434;43.538;-5.688;2022-09-03T03:53:53;5.65;;;2.08;;
73219;SDS011;61434;43.538;-5.688;2022-09-03T03:56:21;6.93;;;2.33;;
73219;SDS011;61434;43.538;-5.688;2022-09-03T03:58:48;9.35;;;2.38;;
73219;SDS011;61434;43.538;-5.688;2022-09-03T04:01:24;9.05;;;2.33;;
73219;SDS011;61434;43.538;-5.688;2022-09-03T04:03:50;8.73;;;2.47;;
73219;SDS011;61434;43.538;-5.688;2022-09-03T04:06:19;6.93;;;2.30;;
73219;SDS011;61434;43.538;-5.688;2022-09-03T04:08:45;8.43;;;2.38;;
73219;SDS011;61434;43.538;-5.688;2022-09-03T04:11:14;8.45;;;2.22;;
73219;SDS011;61434;43.538;-5.688;2022-09-03T04:13:42;7.10;;;2.15;;
73219;SDS011;61434;43.538;-5.688;2022-09-03T04:16:13;8.52;;;2.60;;
73219;SDS011;61434;43.538;-5.688;2022-09-03T04:18:39;7.85;;;2.42;;
73219;SDS011;61434;43.538;-5.688;2022-09-03T04:21:06;11.55;;;2.20;;
73219;SDS011;61434;43.538;-5.688;2022-09-03T04:23:35;6.75;;;2.60;;
73219;SDS011;61434;43.538;-5.688;2022-09-03T04:26:02;9.55;;;2.47;;
73219;SDS011;61434;43.538;-5.688;2022-09-03T04:28:28;9.60;;;2.50;;
73219;SDS011;61434;43.538;-5.688;2022-09-03T04:30:53;7.03;;;2.57;;
73219;SDS011;61434;43.538;-5.688;2022-09-03T04:33:19;9.80;;;2.83;;
73219;SDS011;61434;43.538;-5.688;2022-09-03T04:35:45;8.18;;;2.40;;
73219;SDS011;61434;43.538;-5.688;2022-09-03T04:38:10;7.80;;;2.37;;
73219;SDS011;61434;43.538;-5.688;2022-09-03T04:40:36;7.77;;;2.70;;
73219;SDS011;61434;43.538;-5.688;2022-09-03T04:43:02;7.57;;;2.28;;
73219;SDS011;61434;43.538;-5.688;2022-09-03T04:45:28;6.78;;;2.25;;
73219;SDS011;61434;43.538;-5.688;2022-09-03T04:47:55;8.25;;;2.50;;
73219;SDS011;61434;43.538;-5.688;2022-09-03T04:50:24;8.05;;;2.60;;
73219;SDS011;61434;43.538;-5.688;2022-09-03T04:52:52;9.93;;;2.60;;
73219;SDS011;61434;43.538;-5.688;2022-09-03T04:55:20;11.00;;;2.50;;
73219;SDS011;61434;43.538;-5.688;2022-09-03T04:57:46;8.85;;;2.50;;
73219;SDS011;61434;43.538;-5.688;2022-09-03T05:00:12;8.73;;;2.65;;
73219;SDS011;61434;43.538;-5.688;2022-09-03T05:02:38;8.90;;;2.57;;
73219;SDS011;61434;43.538;-5.688;2022-09-03T05:05:03;9.07;;;2.70;;
73219;SDS011;61434;43.538;-5.688;2022-09-03T05:07:29;11.23;;;2.67;;
73219;SDS011;61434;43.538;-5.688;2022-09-03T05:10:03;9.15;;;2.42;;
73219;SDS011;61434;43.538;-5.688;2022-09-03T05:12:30;9.00;;;2.70;;
73219;SDS011;61434;43.538;-5.688;2022-09-03T05:14:57;7.63;;;3.20;;
73219;SDS011;61434;43.538;-5.688;2022-09-03T05:17:24;9.63;;;3.80;;
73219;SDS011;61434;43.538;-5.688;2022-09-03T05:19:50;10.05;;;3.97;;
73219;SDS011;61434;43.538;-5.688;2022-09-03T05:22:15;7.80;;;3.47;;
73219;SDS011;61434;43.538;-5.688;2022-09-03T05:24:45;9.18;;;3.35;;
73219;SDS011;61434;43.538;-5.688;2022-09-03T05:27:12;8.43;;;3.08;;
73219;SDS011;61434;43.538;-5.688;2022-09-03T05:29:41;8.20;;;3.13;;
73219;SDS011;61434;43.538;-5.688;2022-09-03T05:32:10;9.70;;;3.30;;
73219;SDS011;61434;43.538;-5.688;2022-09-03T05:34:41;14.82;;;3.92;;
73219;SDS011;61434;43.538;-5.688;2022-09-03T05:37:07;8.77;;;3.67;;
73219;SDS011;61434;43.538;-5.688;2022-09-03T05:39:33;11.23;;;3.75;;
73219;SDS011;61434;43.538;-5.688;2022-09-03T05:41:59;11.93;;;3.80;;
73219;SDS011;61434;43.538;-5.688;2022-09-03T05:44:24;9.33;;;3.80;;
73219;SDS011;61434;43.538;-5.688;2022-09-03T05:46:50;10.30;;;3.95;;
73219;SDS011;61434;43.538;-5.688;2022-09-03T05:49:15;12.27;;;3.60;;
73219;SDS011;61434;43.538;-5.688;2022-09-03T05:51:41;10.13;;;3.50;;
73219;SDS011;61434;43.538;-5.688;2022-09-03T05:54:08;10.30;;;3.70;;
73219;SDS011;61434;43.538;-5.688;2022-09-03T05:56:35;9.55;;;3.20;;
73219;SDS011;61434;43.538;-5.688;2022-09-03T05:59:04;9.10;;;3.05;;
73219;SDS011;61434;43.538;-5.688;2022-09-03T06:01:40;9.93;;;2.92;;
73219;SDS011;61434;43.538;-5.688;2022-09-03T06:04:13;12.65;;;3.13;;
73219;SDS011;61434;43.538;-5.688;2022-09-03T06:06:40;10.50;;;3.13;;
73219;SDS011;61434;43.538;-5.688;2022-09-03T06:09:08;8.65;;;3.05;;
73219;SDS011;61434;43.538;-5.688;2022-09-03T06:11:36;7.85;;;2.80;;
73219;SDS011;61434;43.538;-5.688;2022-09-03T06:14:03;8.20;;;3.35;;
73219;SDS011;61434;43.538;-5.688;2022-09-03T06:16:33;8.00;;;3.10;;
73219;SDS011;61434;43.538;-5.688;2022-09-03T06:18:59;8.57;;;3.20;;
73219;SDS011;61434;43.538;-5.688;2022-09-03T06:21:25;9.30;;;3.20;;
73219;SDS011;61434;43.538;-5.688;2022-09-03T06:23:51;10.50;;;3.75;;
73219;SDS011;61434;43.538;-5.688;2022-09-03T06:26:20;11.38;;;3.75;;
73219;SDS011;61434;43.538;-5.688;2022-09-03T06:28:47;13.18;;;3.70;;
73219;SDS011;61434;43.538;-5.688;2022-09-03T06:31:14;9.90;;;3.08;;
73219;SDS011;61434;43.538;-5.688;2022-09-03T06:33:42;10.93;;;3.58;;
73219;SDS011;61434;43.538;-5.688;2022-09-03T06:36:09;7.22;;;2.97;;
73219;SDS011;61434;43.538;-5.688;2022-09-03T06:38:37;10.15;;;3.10;;
73219;SDS011;61434;43.538;-5.688;2022-09-03T06:41:07;11.65;;;3.40;;
73219;SDS011;61434;43.538;-5.688;2022-09-03T06:43:49;9.20;;;2.70;;
73219;SDS011;61434;43.538;-5.688;2022-09-03T06:46:16;11.98;;;3.10;;
73219;SDS011;61434;43.538;-5.688;2022-09-03T06:48:43;8.23;;;2.85;;
73219;SDS011;61434;43.538;-5.688;2022-09-03T06:51:17;7.28;;;3.20;;
73219;SDS011;61434;43.538;-5.688;2022-09-03T06:53:48;10.05;;;3.35;;
73219;SDS011;61434;43.538;-5.688;2022-09-03T06:56:17;9.43;;;3.00;;
73219;SDS011;61434;43.538;-5.688;2022-09-03T06:58:50;7.72;;;2.85;;
73219;SDS011;61434;43.538;-5.688;2022-09-03T07:01:20;10.40;;;3.20;;
73219;SDS011;61434;43.538;-5.688;2022-09-03T07:03:50;9.07;;;2.95;;
73219;SDS011;61434;43.538;-5.688;2022-09-03T07:06:20;9.15;;;2.90;;
73219;SDS011;61434;43.538;-5.688;2022-09-03T07:08:46;10.07;;;3.10;;
73219;SDS011;61434;43.538;-5.688;2022-09-03T07:11:13;9.00;;;3.20;;
73219;SDS011;61434;43.538;-5.688;2022-09-03T07:13:41;8.98;;;3.10;;
73219;SDS011;61434;43.538;-5.688;2022-09-03T07:16:27;7.78;;;2.80;;
73219;SDS011;61434;43.538;-5.688;2022-09-03T07:19:00;10.63;;;3.05;;
73219;SDS011;61434;43.538;-5.688;2022-09-03T07:21:29;8.32;;;3.17;;
73219;SDS011;61434;43.538;-5.688;2022-09-03T07:23:57;10.30;;;3.35;;
73219;SDS011;61434;43.538;-5.688;2022-09-03T07:26:25;8.98;;;3.83;;
73219;SDS011;61434;43.538;-5.688;2022-09-03T07:28:52;11.60;;;3.90;;
73219;SDS011;61434;43.538;-5.688;2022-09-03T07:31:20;12.50;;;3.50;;
73219;SDS011;61434;43.538;-5.688;2022-09-03T07:33:50;13.27;;;3.80;;
73219;SDS011;61434;43.538;-5.688;2022-09-03T07:36:19;9.75;;;3.00;;
73219;SDS011;61434;43.538;-5.688;2022-09-03T07:38:46;8.73;;;3.30;;
73219;SDS011;61434;43.538;-5.688;2022-09-03T07:41:13;8.82;;;2.78;;
73219;SDS011;61434;43.538;-5.688;2022-09-03T07:43:43;8.38;;;2.85;;
73219;SDS011;61434;43.538;-5.688;2022-09-03T07:46:13;8.15;;;3.13;;
73219;SDS011;61434;43.538;-5.688;2022-09-03T07:48:53;9.55;;;2.97;;
73219;SDS011;61434;43.538;-5.688;2022-09-03T07:51:23;6.80;;;2.88;;
73219;SDS011;61434;43.538;-5.688;2022-09-03T07:53:51;8.88;;;2.90;;
73219;SDS011;61434;43.538;-5.688;2022-09-03T07:56:21;7.00;;;2.70;;
73219;SDS011;61434;43.538;-5.688;2022-09-03T07:58:48;8.27;;;2.72;;
73219;SDS011;61434;43.538;-5.688;2022-09-03T08:01:15;7.60;;;2.90;;
73219;SDS011;61434;43.538;-5.688;2022-09-03T08:03:43;8.57;;;3.03;;
73219;SDS011;61434;43.538;-5.688;2022-09-03T08:06:14;10.10;;;3.10;;
73219;SDS011;61434;43.538;-5.688;2022-09-03T08:08:41;7.30;;;3.00;;
73219;SDS011;61434;43.538;-5.688;2022-09-03T08:11:13;10.65;;;3.15;;
73219;SDS011;61434;43.538;-5.688;2022-09-03T08:16:10;11.07;;;3.05;;
73219;SDS011;61434;43.538;-5.688;2022-09-03T08:18:37;11.88;;;3.38;;
73219;SDS011;61434;43.538;-5.688;2022-09-03T08:21:07;9.75;;;3.42;;
73219;SDS011;61434;43.538;-5.688;2022-09-03T08:23:40;8.85;;;2.47;;
73219;SDS011;61434;43.538;-5.688;2022-09-03T08:26:07;8.23;;;2.50;;
73219;SDS011;61434;43.538;-5.688;2022-09-03T08:28:34;6.38;;;2.20;;
73219;SDS011;61434;43.538;-5.688;2022-09-03T08:31:10;9.00;;;2.30;;
73219;SDS011;61434;43.538;-5.688;2022-09-03T08:33:38;7.68;;;2.58;;
73219;SDS011;61434;43.538;-5.688;2022-09-03T08:36:08;7.70;;;2.10;;
73219;SDS011;61434;43.538;-5.688;2022-09-03T08:38:36;8.48;;;2.35;;
73219;SDS011;61434;43.538;-5.688;2022-09-03T08:41:11;7.72;;;2.55;;
73219;SDS011;61434;43.538;-5.688;2022-09-03T08:43:59;11.73;;;4.50;;
73219;SDS011;61434;43.538;-5.688;2022-09-03T08:49:22;17.23;;;6.30;;
73219;SDS011;61434;43.538;-5.688;2022-09-03T08:51:51;24.20;;;8.70;;
73219;SDS011;61434;43.538;-5.688;2022-09-03T08:54:20;21.23;;;9.60;;
73219;SDS011;61434;43.538;-5.688;2022-09-03T08:56:50;22.73;;;9.68;;
73219;SDS011;61434;43.538;-5.688;2022-09-03T08:59:16;16.98;;;8.30;;
73219;SDS011;61434;43.538;-5.688;2022-09-03T09:01:47;18.15;;;7.65;;
73219;SDS011;61434;43.538;-5.688;2022-09-03T09:07:21;9.70;;;3.47;;
73219;SDS011;61434;43.538;-5.688;2022-09-03T09:20:29;7.55;;;2.30;;
73219;SDS011;61434;43.538;-5.688;2022-09-03T09:23:00;7.93;;;2.30;;
73219;SDS011;61434;43.538;-5.688;2022-09-03T09:25:30;7.63;;;2.33;;
73219;SDS011;61434;43.538;-5.688;2022-09-03T09:28:00;6.43;;;2.10;;
73219;SDS011;61434;43.538;-5.688;2022-09-03T09:30:29;8.27;;;2.53;;
73219;SDS011;61434;43.538;-5.688;2022-09-03T09:32:55;8.75;;;2.50;;
73219;SDS011;61434;43.538;-5.688;2022-09-03T09:35:21;7.97;;;2.13;;
73219;SDS011;61434;43.538;-5.688;2022-09-03T09:37:48;8.60;;;2.28;;
73219;SDS011;61434;43.538;-5.688;2022-09-03T09:40:48;7.38;;;1.73;;
73219;SDS011;61434;43.538;-5.688;2022-09-03T09:45:46;7.25;;;2.05;;
73219;SDS011;61434;43.538;-5.688;2022-09-03T09:51:17;8.85;;;2.03;;
73219;SDS011;61434;43.538;-5.688;2022-09-03T09:53:45;6.57;;;2.20;;
73219;SDS011;61434;43.538;-5.688;2022-09-03T09:56:20;9.30;;;2.40;;
73219;SDS011;61434;43.538;-5.688;2022-09-03T09:58:47;6.68;;;1.95;;
73219;SDS011;61434;43.538;-5.688;2022-09-03T10:01:15;5.97;;;1.73;;
73219;SDS011;61434;43.538;-5.688;2022-09-03T10:03:52;7.25;;;2.05;;
73219;SDS011;61434;43.538;-5.688;2022-09-03T10:06:28;8.45;;;1.92;;
73219;SDS011;61434;43.538;-5.688;2022-09-03T10:09:18;8.25;;;1.80;;
73219;SDS011;61434;43.538;-5.688;2022-09-03T10:11:49;7.20;;;1.90;;
73219;SDS011;61434;43.538;-5.688;2022-09-03T10:16:47;7.13;;;2.13;;
73219;SDS011;61434;43.538;-5.688;2022-09-03T10:19:19;8.63;;;2.10;;
73219;SDS011;61434;43.538;-5.688;2022-09-03T10:22:01;7.75;;;2.00;;
73219;SDS011;61434;43.538;-5.688;2022-09-03T10:27:08;7.78;;;1.77;;
73219;SDS011;61434;43.538;-5.688;2022-09-03T10:29:36;7.63;;;2.17;;
73219;SDS011;61434;43.538;-5.688;2022-09-03T10:48:14;6.45;;;2.03;;
73219;SDS011;61434;43.538;-5.688;2022-09-03T10:50:49;8.02;;;2.28;;
73219;SDS011;61434;43.538;-5.688;2022-09-03T11:01:48;6.93;;;1.80;;
73219;SDS011;61434;43.538;-5.688;2022-09-03T11:07:13;7.97;;;1.80;;
73219;SDS011;61434;43.538;-5.688;2022-09-03T11:09:54;7.82;;;2.25;;
73219;SDS011;61434;43.538;-5.688;2022-09-03T11:12:32;5.85;;;1.88;;
73219;SDS011;61434;43.538;-5.688;2022-09-03T11:15:04;8.43;;;1.88;;
73219;SDS011;61434;43.538;-5.688;2022-09-03T11:17:39;6.22;;;1.92;;
73219;SDS011;61434;43.538;-5.688;2022-09-03T11:22:40;8.32;;;2.22;;
73219;SDS011;61434;43.538;-5.688;2022-09-03T11:25:09;7.18;;;2.05;;
73219;SDS011;61434;43.538;-5.688;2022-09-03T11:30:07;6.20;;;1.70;;
73219;SDS011;61434;43.538;-5.688;2022-09-03T11:35:15;6.53;;;1.80;;
73219;SDS011;61434;43.538;-5.688;2022-09-03T11:38:17;7.63;;;1.90;;
73219;SDS011;61434;43.538;-5.688;2022-09-03T11:43:40;6.68;;;2.00;;
73219;SDS011;61434;43.538;-5.688;2022-09-03T11:46:10;4.73;;;1.70;;
73219;SDS011;61434;43.538;-5.688;2022-09-03T11:48:51;7.07;;;1.90;;
73219;SDS011;61434;43.538;-5.688;2022-09-03T11:54:22;6.07;;;1.90;;
73219;SDS011;61434;43.538;-5.688;2022-09-03T11:56:50;6.95;;;2.20;;
73219;SDS011;61434;43.538;-5.688;2022-09-03T11:59:28;5.47;;;1.70;;
73219;SDS011;61434;43.538;-5.688;2022-09-03T12:07:28;6.25;;;1.58;;
73219;SDS011;61434;43.538;-5.688;2022-09-03T12:18:10;5.70;;;1.70;;
73219;SDS011;61434;43.538;-5.688;2022-09-03T12:20:44;6.57;;;1.80;;
73219;SDS011;61434;43.538;-5.688;2022-09-03T12:26:17;6.10;;;1.60;;
73219;SDS011;61434;43.538;-5.688;2022-09-03T12:28:55;7.78;;;1.45;;
73219;SDS011;61434;43.538;-5.688;2022-09-03T12:31:23;6.72;;;1.88;;
73219;SDS011;61434;43.538;-5.688;2022-09-03T12:34:00;5.85;;;1.90;;
73219;SDS011;61434;43.538;-5.688;2022-09-03T12:36:40;4.85;;;1.55;;
73219;SDS011;61434;43.538;-5.688;2022-09-03T12:39:14;6.90;;;1.73;;
73219;SDS011;61434;43.538;-5.688;2022-09-03T12:44:23;6.03;;;1.60;;
73219;SDS011;61434;43.538;-5.688;2022-09-03T12:49:40;6.43;;;1.80;;
73219;SDS011;61434;43.538;-5.688;2022-09-03T12:54:37;6.40;;;1.50;;
73219;SDS011;61434;43.538;-5.688;2022-09-03T12:57:07;5.57;;;1.53;;
73219;SDS011;61434;43.538;-5.688;2022-09-03T12:59:34;7.10;;;1.60;;
73219;SDS011;61434;43.538;-5.688;2022-09-03T13:02:12;5.30;;;1.40;;
73219;SDS011;61434;43.538;-5.688;2022-09-03T13:04:42;6.70;;;1.93;;
73219;SDS011;61434;43.538;-5.688;2022-09-03T13:07:13;6.78;;;1.80;;
73219;SDS011;61434;43.538;-5.688;2022-09-03T13:10:00;7.68;;;1.58;;
73219;SDS011;61434;43.538;-5.688;2022-09-03T13:12:32;6.43;;;1.88;;
73219;SDS011;61434;43.538;-5.688;2022-09-03T13:15:08;7.00;;;1.80;;
73219;SDS011;61434;43.538;-5.688;2022-09-03T13:20:26;6.65;;;1.77;;
73219;SDS011;61434;43.538;-5.688;2022-09-03T13:34:30;6.57;;;1.65;;
73219;SDS011;61434;43.538;-5.688;2022-09-03T13:42:56;6.72;;;1.73;;
73219;SDS011;61434;43.538;-5.688;2022-09-03T13:47:58;8.57;;;2.08;;
73219;SDS011;61434;43.538;-5.688;2022-09-03T13:51:06;5.63;;;1.70;;
73219;SDS011;61434;43.538;-5.688;2022-09-03T13:57:07;6.72;;;1.77;;
73219;SDS011;61434;43.538;-5.688;2022-09-03T13:59:27;7.77;;;1.80;;
73219;SDS011;61434;43.538;-5.688;2022-09-03T14:02:01;5.65;;;1.67;;
73219;SDS011;61434;43.538;-5.688;2022-09-03T14:07:24;4.82;;;1.55;;
73219;SDS011;61434;43.538;-5.688;2022-09-03T14:09:55;6.75;;;1.67;;
73219;SDS011;61434;43.538;-5.688;2022-09-03T14:12:34;6.63;;;1.70;;
73219;SDS011;61434;43.538;-5.688;2022-09-03T14:15:19;6.70;;;1.50;;
73219;SDS011;61434;43.538;-5.688;2022-09-03T14:26:34;6.67;;;1.47;;
73219;SDS011;61434;43.538;-5.688;2022-09-03T14:40:29;4.83;;;1.50;;
73219;SDS011;61434;43.538;-5.688;2022-09-03T14:53:54;6.85;;;1.42;;
73219;SDS011;61434;43.538;-5.688;2022-09-03T14:59:33;5.47;;;1.40;;
73219;SDS011;61434;43.538;-5.688;2022-09-03T15:05:14;7.35;;;1.60;;
73219;SDS011;61434;43.538;-5.688;2022-09-03T15:07:59;5.97;;;1.40;;
73219;SDS011;61434;43.538;-5.688;2022-09-03T15:13:51;4.90;;;1.70;;
73219;SDS011;61434;43.538;-5.688;2022-09-03T15:16:35;6.15;;;1.40;;
73219;SDS011;61434;43.538;-5.688;2022-09-03T15:19:35;4.57;;;1.63;;
73219;SDS011;61434;43.538;-5.688;2022-09-03T15:25:33;5.35;;;1.42;;
73219;SDS011;61434;43.538;-5.688;2022-09-03T15:37:22;4.88;;;1.60;;
73219;SDS011;61434;43.538;-5.688;2022-09-03T15:39:56;6.07;;;1.63;;
73219;SDS011;61434;43.538;-5.688;2022-09-03T15:42:27;4.77;;;1.40;;
73219;SDS011;61434;43.538;-5.688;2022-09-03T15:44:55;7.75;;;1.63;;
73219;SDS011;61434;43.538;-5.688;2022-09-03T15:50:05;7.95;;;1.67;;
73219;SDS011;61434;43.538;-5.688;2022-09-03T15:56:13;6.73;;;1.90;;
73219;SDS011;61434;43.538;-5.688;2022-09-03T16:01:43;8.27;;;1.77;;
73219;SDS011;61434;43.538;-5.688;2022-09-03T16:04:42;6.45;;;1.50;;
73219;SDS011;61434;43.538;-5.688;2022-09-03T16:10:32;6.23;;;1.50;;
73219;SDS011;61434;43.538;-5.688;2022-09-03T16:13:10;6.22;;;1.60;;
73219;SDS011;61434;43.538;-5.688;2022-09-03T16:15:45;5.57;;;1.90;;
73219;SDS011;61434;43.538;-5.688;2022-09-03T16:18:23;5.32;;;1.50;;
73219;SDS011;61434;43.538;-5.688;2022-09-03T16:21:00;8.80;;;1.80;;
73219;SDS011;61434;43.538;-5.688;2022-09-03T16:23:45;5.50;;;1.60;;
73219;SDS011;61434;43.538;-5.688;2022-09-03T16:26:39;7.60;;;1.48;;
73219;SDS011;61434;43.538;-5.688;2022-09-03T16:29:24;6.38;;;1.50;;
73219;SDS011;61434;43.538;-5.688;2022-09-03T16:37:28;6.93;;;1.60;;
73219;SDS011;61434;43.538;-5.688;2022-09-03T16:51:53;7.13;;;1.67;;
73219;SDS011;61434;43.538;-5.688;2022-09-03T16:54:39;6.20;;;1.70;;
73219;SDS011;61434;43.538;-5.688;2022-09-03T16:59:59;5.00;;;1.55;;
73219;SDS011;61434;43.538;-5.688;2022-09-03T17:02:50;7.20;;;1.60;;
73219;SDS011;61434;43.538;-5.688;2022-09-03T17:08:48;5.22;;;1.50;;
73219;SDS011;61434;43.538;-5.688;2022-09-03T17:20:04;6.73;;;1.57;;
73219;SDS011;61434;43.538;-5.688;2022-09-03T17:25:48;7.78;;;1.80;;
73219;SDS011;61434;43.538;-5.688;2022-09-03T17:33:54;6.87;;;1.70;;
73219;SDS011;61434;43.538;-5.688;2022-09-03T17:36:27;6.00;;;1.48;;
73219;SDS011;61434;43.538;-5.688;2022-09-03T17:41:54;4.93;;;1.70;;
73219;SDS011;61434;43.538;-5.688;2022-09-03T17:50:11;8.70;;;2.08;;
73219;SDS011;61434;43.538;-5.688;2022-09-03T17:52:43;6.07;;;1.88;;
73219;SDS011;61434;43.538;-5.688;2022-09-03T17:55:16;7.75;;;1.70;;
73219;SDS011;61434;43.538;-5.688;2022-09-03T17:57:47;6.13;;;1.98;;
73219;SDS011;61434;43.538;-5.688;2022-09-03T18:00:24;6.73;;;1.60;;
73219;SDS011;61434;43.538;-5.688;2022-09-03T18:03:01;8.27;;;1.90;;
73219;SDS011;61434;43.538;-5.688;2022-09-03T18:11:18;5.18;;;1.73;;
73219;SDS011;61434;43.538;-5.688;2022-09-03T18:13:49;5.67;;;1.77;;
73219;SDS011;61434;43.538;-5.688;2022-09-03T18:19:32;5.28;;;1.60;;
73219;SDS011;61434;43.538;-5.688;2022-09-03T18:22:30;6.28;;;1.63;;
73219;SDS011;61434;43.538;-5.688;2022-09-03T18:25:19;6.65;;;1.60;;
73219;SDS011;61434;43.538;-5.688;2022-09-03T18:28:09;8.13;;;1.80;;
73219;SDS011;61434;43.538;-5.688;2022-09-03T18:30:58;7.22;;;2.13;;
73219;SDS011;61434;43.538;-5.688;2022-09-03T18:33:42;6.47;;;1.83;;
73219;SDS011;61434;43.538;-5.688;2022-09-03T18:36:26;9.30;;;2.20;;
73219;SDS011;61434;43.538;-5.688;2022-09-03T18:39:14;7.25;;;1.83;;
73219;SDS011;61434;43.538;-5.688;2022-09-03T18:42:21;7.97;;;2.00;;
73219;SDS011;61434;43.538;-5.688;2022-09-03T18:45:12;8.98;;;1.90;;
73219;SDS011;61434;43.538;-5.688;2022-09-03T18:51:17;8.18;;;2.08;;
73219;SDS011;61434;43.538;-5.688;2022-09-03T18:57:13;7.20;;;2.13;;
73219;SDS011;61434;43.538;-5.688;2022-09-03T19:11:57;7.30;;;1.80;;
73219;SDS011;61434;43.538;-5.688;2022-09-03T19:14:52;6.55;;;1.80;;
73219;SDS011;61434;43.538;-5.688;2022-09-03T19:20:44;6.80;;;1.90;;
73219;SDS011;61434;43.538;-5.688;2022-09-03T19:23:37;6.63;;;1.90;;
73219;SDS011;61434;43.538;-5.688;2022-09-03T19:26:29;6.80;;;1.70;;
73219;SDS011;61434;43.538;-5.688;2022-09-03T19:29:28;7.13;;;1.88;;
73219;SDS011;61434;43.538;-5.688;2022-09-03T19:50:43;7.05;;;1.95;;
73219;SDS011;61434;43.538;-5.688;2022-09-03T19:53:36;6.68;;;2.30;;
73219;SDS011;61434;43.538;-5.688;2022-09-03T19:56:27;6.60;;;1.97;;
73219;SDS011;61434;43.538;-5.688;2022-09-03T19:59:14;6.55;;;2.53;;
73219;SDS011;61434;43.538;-5.688;2022-09-03T20:02:03;6.13;;;2.15;;
73219;SDS011;61434;43.538;-5.688;2022-09-03T20:04:57;6.78;;;2.10;;
73219;SDS011;61434;43.538;-5.688;2022-09-03T20:07:44;7.53;;;2.38;;
73219;SDS011;61434;43.538;-5.688;2022-09-03T20:10:30;8.97;;;2.40;;
73219;SDS011;61434;43.538;-5.688;2022-09-03T20:13:02;6.82;;;2.33;;
73219;SDS011;61434;43.538;-5.688;2022-09-03T20:16:16;8.27;;;2.35;;
73219;SDS011;61434;43.538;-5.688;2022-09-03T20:26:50;6.75;;;2.15;;
73219;SDS011;61434;43.538;-5.688;2022-09-03T20:48:22;7.70;;;2.33;;
73219;SDS011;61434;43.538;-5.688;2022-09-03T20:53:40;7.60;;;2.30;;
73219;SDS011;61434;43.538;-5.688;2022-09-03T20:56:14;6.82;;;2.20;;
73219;SDS011;61434;43.538;-5.688;2022-09-03T21:01:19;6.68;;;2.72;;
73219;SDS011;61434;43.538;-5.688;2022-09-03T21:04:08;8.53;;;2.50;;
73219;SDS011;61434;43.538;-5.688;2022-09-03T21:09:36;7.53;;;2.60;;
73219;SDS011;61434;43.538;-5.688;2022-09-03T21:14:56;8.10;;;2.38;;
73219;SDS011;61434;43.538;-5.688;2022-09-03T21:17:29;7.57;;;2.60;;
73219;SDS011;61434;43.538;-5.688;2022-09-03T21:20:22;7.60;;;2.53;;
73219;SDS011;61434;43.538;-5.688;2022-09-03T21:25:30;8.32;;;2.72;;
73219;SDS011;61434;43.538;-5.688;2022-09-03T21:28:09;9.70;;;4.30;;
73219;SDS011;61434;43.538;-5.688;2022-09-03T21:30:42;9.90;;;4.70;;
73219;SDS011;61434;43.538;-5.688;2022-09-03T21:33:17;10.77;;;4.22;;
73219;SDS011;61434;43.538;-5.688;2022-09-03T21:35:52;10.57;;;4.80;;
73219;SDS011;61434;43.538;-5.688;2022-09-03T21:38:27;10.02;;;5.22;;